Time;durP1;ratioP1;P1;durP2;ratioP2;P2;SDS_P1;SDS_P2;PMS_P1;PMS_P2;Temp;Humidity;BMP_temperature;BMP_pressure;BME280_temperature;BME280_humidity;BME280_pressure;Samples;Min_cycle;Max_cycle;Signal;HPM_P1;HPM_P2
2024/02/04 00:02:17;;;;;;;2.40;1.70;;;;;;;6.13;81.27;98102.08;107385;1253;73590;-40
2024/02/04 00:04:47;;;;;;;4.20;1.80;;;;;;;6.11;81.32;98097.65;107395;1253;67457;-39
2024/02/04 00:07:15;;;;;;;2.60;1.70;;;;;;;6.07;81.37;98103.42;107433;1253;71410;-40
2024/02/04 00:09:43;;;;;;;2.40;1.80;;;;;;;6.07;80.70;98109.05;107525;1253;60325;-39
2024/02/04 00:12:11;;;;;;;2.70;1.60;;;;;;;6.13;80.19;98103.01;107577;1253;60308;-39
2024/02/04 00:14:39;;;;;;;4.20;1.80;;;;;;;6.14;79.85;98101.33;107556;1253;73781;-40
2024/02/04 00:17:06;;;;;;;5.70;1.90;;;;;;;6.12;79.29;98109.44;107542;1253;68371;-39
2024/02/04 00:19:33;;;;;;;6.40;1.80;;;;;;;6.09;77.48;98107.48;107634;1252;72698;-39
2024/02/04 00:22:01;;;;;;;5.90;2.00;;;;;;;6.12;75.82;98114.36;107554;1253;60403;-40
2024/02/04 00:24:29;;;;;;;6.10;1.70;;;;;;;6.21;74.62;98111.42;107503;1253;60362;-40
2024/02/04 00:26:57;;;;;;;4.90;2.10;;;;;;;6.22;73.19;98109.30;107593;1253;72922;-39
2024/02/04 00:29:24;;;;;;;5.60;1.80;;;;;;;6.23;72.84;98110.45;107573;1253;69155;-39
2024/02/04 00:31:52;;;;;;;4.10;1.70;;;;;;;6.22;72.65;98106.67;107613;1254;72466;-40
2024/02/04 00:34:19;;;;;;;5.30;1.80;;;;;;;6.22;72.60;98114.67;107503;1254;61140;-39
2024/02/04 00:36:47;;;;;;;4.80;2.00;;;;;;;6.25;72.28;98115.66;107650;1253;60378;-40
2024/02/04 00:39:15;;;;;;;4.50;1.70;;;;;;;6.30;72.01;98116.41;107639;1257;73829;-40
2024/02/04 00:41:42;;;;;;;6.00;1.90;;;;;;;6.28;71.42;98109.64;107644;1257;67541;-40
2024/02/04 00:44:10;;;;;;;4.60;1.70;;;;;;;6.26;70.51;98104.89;107618;1253;72483;-39
2024/02/04 00:46:37;;;;;;;3.60;1.60;;;;;;;6.23;70.13;98108.23;107624;1253;60464;-39
2024/02/04 00:49:05;;;;;;;3.90;2.20;;;;;;;6.17;70.11;98105.92;107633;1251;60423;-40
2024/02/04 00:51:33;;;;;;;4.80;1.60;;;;;;;6.21;69.66;98109.34;107510;1251;72573;-39
2024/02/04 00:54:01;;;;;;;5.50;1.80;;;;;;;6.28;69.63;98115.54;107593;1251;67398;-39
2024/02/04 00:56:28;;;;;;;4.50;1.80;;;;;;;6.31;69.76;98115.73;107699;1251;72679;-39
2024/02/04 00:58:56;;;;;;;5.00;2.00;;;;;;;6.27;69.48;98115.67;107713;1254;60414;-40
2024/02/04 01:01:25;;;;;;;6.60;2.30;;;;;;;6.23;69.47;98115.02;107742;1251;60773;-40
2024/02/04 01:03:53;;;;;;;5.90;2.10;;;;;;;6.22;69.37;98115.13;107711;1251;72600;-40
2024/02/04 01:06:21;;;;;;;5.40;2.00;;;;;;;6.19;69.22;98114.64;107735;1251;68828;-40
2024/02/04 01:08:48;;;;;;;4.80;1.90;;;;;;;6.17;68.78;98110.97;107714;1257;70441;-40
2024/02/04 01:11:16;;;;;;;4.40;2.00;;;;;;;6.20;68.39;98111.12;107714;1251;60889;-40
2024/02/04 01:13:44;;;;;;;4.20;1.50;;;;;;;6.24;68.19;98106.34;107723;1257;59602;-40
2024/02/04 01:16:11;;;;;;;3.80;1.70;;;;;;;6.23;68.18;98112.15;107736;1251;72961;-40
2024/02/04 01:18:39;;;;;;;4.30;1.70;;;;;;;6.22;68.19;98106.76;107733;1251;68219;-40
2024/02/04 01:21:08;;;;;;;5.90;2.10;;;;;;;6.15;68.09;98098.88;107708;1251;71702;-40
2024/02/04 01:23:36;;;;;;;5.50;2.10;;;;;;;6.17;68.13;98105.45;107517;1257;60481;-40
2024/02/04 01:26:04;;;;;;;4.50;1.40;;;;;;;6.15;67.82;98107.32;107590;1251;60312;-40
2024/02/04 01:28:31;;;;;;;3.50;1.60;;;;;;;6.15;67.46;98119.86;107437;1251;74518;-40
2024/02/04 01:30:59;;;;;;;4.00;1.70;;;;;;;6.22;67.44;98116.22;107659;1251;68413;-40
2024/02/04 01:33:27;;;;;;;4.80;1.80;;;;;;;6.25;67.36;98116.56;107722;1251;72509;-40
2024/02/04 01:35:54;;;;;;;4.70;1.80;;;;;;;6.23;67.29;98113.92;107682;1257;60318;-40
2024/02/04 01:38:22;;;;;;;4.20;1.70;;;;;;;6.21;67.60;98117.27;107757;1251;60005;-40
2024/02/04 01:40:52;;;;;;;4.70;2.00;;;;;;;6.18;68.44;98119.06;107718;1251;74205;-40
2024/02/04 01:43:21;;;;;;;3.90;1.70;;;;;;;6.13;69.53;98115.06;107673;1251;67395;-40
2024/02/04 01:45:50;;;;;;;4.40;1.60;;;;;;;6.07;69.97;98103.36;107561;1251;72495;-40
2024/02/04 01:48:18;;;;;;;3.30;1.80;;;;;;;6.09;70.13;98110.55;107744;1253;60510;-40
2024/02/04 01:50:47;;;;;;;4.40;2.10;;;;;;;6.13;69.68;98111.06;107423;1251;60899;-40
2024/02/04 01:53:15;;;;;;;4.60;1.80;;;;;;;6.10;69.34;98112.25;107585;1251;73921;-39
2024/02/04 01:55:43;;;;;;;3.70;2.00;;;;;;;6.07;69.32;98112.89;107735;1251;68733;-40
2024/02/04 01:58:10;;;;;;;7.40;2.60;;;;;;;6.04;68.71;98117.09;107485;1251;72488;-40
2024/02/04 02:00:40;;;;;;;6.60;1.70;;;;;;;6.03;68.16;98117.75;107750;1251;60389;-40
2024/02/04 02:03:08;;;;;;;3.20;1.70;;;;;;;6.02;67.53;98124.88;107796;1251;60299;-40
2024/02/04 02:05:36;;;;;;;4.50;1.90;;;;;;;6.01;67.20;98117.02;107655;1251;74044;-40
2024/02/04 02:08:04;;;;;;;5.90;1.60;;;;;;;6.07;66.91;98120.67;107702;1251;67229;-39
2024/02/04 02:10:32;;;;;;;5.10;1.80;;;;;;;6.11;66.60;98122.04;107738;1251;73139;-39
2024/02/04 02:13:11;;;;;;;4.00;1.70;;;;;;;6.11;66.49;98121.86;107751;1257;60435;-40
2024/02/04 02:15:43;;;;;;;6.90;2.20;;;;;;;6.08;66.66;98128.38;107698;1251;60318;-40
2024/02/04 02:18:18;;;;;;;5.20;1.60;;;;;;;6.06;66.64;98130.25;107528;1251;73807;-40
2024/02/04 02:21:23;;;;;;;4.00;1.90;;;;;;;6.02;66.66;98131.50;107730;1251;68419;-40
2024/02/04 02:24:03;;;;;;;4.80;1.70;;;;;;;5.99;66.72;98135.13;107650;1251;72748;-40
2024/02/04 02:26:38;;;;;;;3.80;1.60;;;;;;;5.96;66.61;98132.98;107554;1251;60374;-40
2024/02/04 02:29:08;;;;;;;4.00;1.70;;;;;;;5.96;66.58;98137.16;107505;1257;59222;-40
2024/02/04 02:31:37;;;;;;;6.00;2.10;;;;;;;6.03;66.73;98141.27;107543;1254;73887;-40
2024/02/04 02:34:15;;;;;;;4.70;1.70;;;;;;;6.04;66.84;98145.37;107602;1253;67974;-40
2024/02/04 02:37:09;;;;;;;4.80;1.70;;;;;;;6.02;66.92;98148.01;107483;1254;71236;-40
2024/02/04 02:40:02;;;;;;;5.20;1.70;;;;;;;5.99;67.08;98146.65;107529;1254;60409;-40
2024/02/04 02:42:30;;;;;;;4.80;1.80;;;;;;;5.95;67.11;98142.36;107560;1253;60421;-40
2024/02/04 02:44:57;;;;;;;6.70;1.80;;;;;;;5.92;66.84;98141.84;107255;1254;73834;-39
2024/02/04 02:47:26;;;;;;;9.30;2.50;;;;;;;5.88;66.75;98145.63;107355;1254;69176;-39
2024/02/04 02:49:54;;;;;;;4.60;1.50;;;;;;;5.86;66.83;98147.33;107495;1254;72781;-40
2024/02/04 02:52:22;;;;;;;4.70;2.10;;;;;;;5.88;66.41;98143.54;107510;1254;60831;-40
2024/02/04 02:54:50;;;;;;;5.30;1.70;;;;;;;5.90;66.30;98143.42;107543;1252;60540;-40
2024/02/04 02:57:18;;;;;;;4.80;1.80;;;;;;;5.88;66.20;98141.17;107260;1252;73927;-40
2024/02/04 02:59:45;;;;;;;5.70;2.10;;;;;;;5.87;66.11;98141.58;107528;1254;67546;-40
2024/02/04 03:02:13;;;;;;;8.70;2.10;;;;;;;5.85;66.27;98140.86;106158;1252;1003094;-40
2024/02/04 03:04:41;;;;;;;5.30;2.00;;;;;;;5.83;66.32;98140.19;103862;1252;1003992;-40
2024/02/04 03:07:09;;;;;;;6.20;1.90;;;;;;;5.80;66.34;98134.06;107536;1254;60309;-39
2024/02/04 03:09:36;;;;;;;7.40;2.10;;;;;;;5.77;66.47;98137.23;107445;1258;73870;-40
2024/02/04 03:12:04;;;;;;;5.40;2.00;;;;;;;5.81;66.54;98133.39;107657;1254;68400;-40
2024/02/04 03:14:32;;;;;;;6.10;2.00;;;;;;;5.85;66.45;98134.62;107557;1254;72484;-39
2024/02/04 03:17:00;;;;;;;5.30;2.00;;;;;;;5.84;66.53;98139.98;107496;1253;60459;-40
2024/02/04 03:19:28;;;;;;;7.40;2.10;;;;;;;5.82;66.81;98132.02;107461;1252;59275;-40
2024/02/04 03:21:55;;;;;;;5.90;2.10;;;;;;;5.81;66.94;98134.40;107407;1252;73843;-40
2024/02/04 03:24:23;;;;;;;6.90;2.00;;;;;;;5.80;67.11;98134.15;107405;1254;68653;-40
2024/02/04 03:26:50;;;;;;;6.50;2.00;;;;;;;5.79;67.42;98137.35;107388;1256;71521;-40
2024/02/04 03:29:18;;;;;;;3.40;1.50;;;;;;;5.77;67.75;98127.33;107454;1254;59743;-40
2024/02/04 03:31:46;;;;;;;3.50;1.50;;;;;;;5.80;67.82;98128.15;107606;1252;60457;-39
2024/02/04 03:34:13;;;;;;;5.20;1.80;;;;;;;5.79;67.89;98131.75;107534;1253;73206;-39
2024/02/04 03:36:41;;;;;;;6.70;2.10;;;;;;;5.73;68.22;98135.09;107616;1257;67819;-40
2024/02/04 03:39:09;;;;;;;5.10;1.90;;;;;;;5.67;68.50;98135.14;107623;1254;71409;-40
2024/02/04 03:41:36;;;;;;;5.30;1.80;;;;;;;5.59;68.85;98133.39;107592;1253;60424;-40
2024/02/04 03:44:04;;;;;;;5.70;1.80;;;;;;;5.54;69.12;98143.74;107538;1254;60354;-39
2024/02/04 03:46:31;;;;;;;4.30;1.80;;;;;;;5.49;69.32;98138.72;107590;1252;71568;-40
2024/02/04 03:48:59;;;;;;;3.60;1.90;;;;;;;5.51;69.46;98132.40;107509;1252;67923;-40
2024/02/04 03:51:27;;;;;;;6.90;1.80;;;;;;;5.54;69.65;98137.45;107492;1254;72518;-40
2024/02/04 03:53:54;;;;;;;4.90;2.20;;;;;;;5.50;69.89;98142.73;107495;1254;60130;-40
2024/02/04 03:56:22;;;;;;;4.40;1.90;;;;;;;5.43;70.30;98142.37;106750;1254;1003094;-40
2024/02/04 03:58:50;;;;;;;5.80;2.10;;;;;;;5.36;70.67;98141.85;107567;1252;73836;-39
2024/02/04 04:01:18;;;;;;;6.50;1.90;;;;;;;5.27;71.08;98147.44;107555;1254;68704;-40
2024/02/04 04:03:46;;;;;;;3.60;1.60;;;;;;;5.18;71.44;98138.03;107564;1253;72657;-40
2024/02/04 04:06:13;;;;;;;5.40;1.90;;;;;;;5.21;71.57;98151.08;107591;1253;60405;-40
2024/02/04 04:08:41;;;;;;;4.30;1.60;;;;;;;5.14;71.88;98152.99;107517;1254;59331;-39
2024/02/04 04:11:09;;;;;;;8.30;1.70;;;;;;;5.04;72.25;98149.64;107519;1258;73800;-40
2024/02/04 04:13:37;;;;;;;7.30;1.80;;;;;;;4.94;72.48;98150.35;106906;1253;1003063;-40
2024/02/04 04:16:05;;;;;;;5.30;1.70;;;;;;;4.85;73.01;98148.71;107494;1254;72635;-39
2024/02/04 04:18:33;;;;;;;3.60;1.50;;;;;;;4.83;73.19;98155.34;107557;1253;60847;-39
2024/02/04 04:21:01;;;;;;;5.50;2.10;;;;;;;4.84;73.48;98158.64;107541;1253;60316;-39
2024/02/04 04:23:28;;;;;;;6.10;2.00;;;;;;;4.78;74.02;98157.45;107602;1254;72646;-40
2024/02/04 04:25:56;;;;;;;5.30;1.90;;;;;;;4.74;74.19;98155.75;107669;1254;67456;-39
2024/02/04 04:28:24;;;;;;;5.70;1.80;;;;;;;4.69;74.38;98160.55;107664;1254;72784;-40
2024/02/04 04:30:51;;;;;;;5.50;2.00;;;;;;;4.68;74.61;98168.43;107755;1251;60906;-40
2024/02/04 04:33:19;;;;;;;10.30;2.30;;;;;;;4.73;74.60;98169.31;107747;1251;60476;-39
2024/02/04 04:35:47;;;;;;;3.80;1.60;;;;;;;4.76;74.61;98166.22;107725;1251;72552;-40
2024/02/04 04:38:14;;;;;;;7.40;1.90;;;;;;;4.73;74.80;98168.52;107781;1256;67404;-40
2024/02/04 04:40:42;;;;;;;4.40;1.70;;;;;;;4.68;74.92;98171.50;107744;1252;71466;-39
2024/02/04 04:43:09;;;;;;;3.80;1.80;;;;;;;4.64;75.20;98174.55;107647;1251;155076;-39
2024/02/04 04:48:09;;;;;;;5.20;1.70;;;;;;;4.71;75.04;98177.93;104306;1293;600200;-39
2024/02/04 04:50:38;;;;;;;4.30;1.60;;;;;;;4.68;74.92;98179.03;106652;1267;59143;-40
2024/02/04 04:53:05;;;;;;;5.90;1.60;;;;;;;4.66;75.03;98177.11;106714;1267;60061;-40
2024/02/04 04:55:32;;;;;;;4.90;1.80;;;;;;;4.63;74.86;98174.36;106694;1272;70978;-39
2024/02/04 04:58:00;;;;;;;5.90;1.60;;;;;;;4.62;74.40;98175.65;106662;1272;68190;-39
2024/02/04 05:00:28;;;;;;;7.00;2.00;;;;;;;4.68;73.67;98176.95;106688;1271;71356;-40
2024/02/04 05:02:55;;;;;;;5.70;2.10;;;;;;;4.73;73.31;98171.48;106651;1266;187627;-40
2024/02/04 05:05:23;;;;;;;5.30;1.80;;;;;;;4.73;72.93;98171.30;106789;1264;60009;-40
2024/02/04 05:07:50;;;;;;;9.40;1.80;;;;;;;4.74;72.72;98164.58;106778;1269;72294;-40
2024/02/04 05:10:18;;;;;;;7.50;1.90;;;;;;;4.75;72.44;98163.42;106813;1269;67390;-40
2024/02/04 05:12:46;;;;;;;6.40;2.00;;;;;;;4.77;72.09;98160.41;106694;1267;71186;-39
2024/02/04 05:15:13;;;;;;;7.10;2.50;;;;;;;4.85;71.60;98163.20;106654;1264;59641;-40
2024/02/04 05:17:41;;;;;;;7.50;1.90;;;;;;;4.87;71.53;98168.23;106756;1268;59536;-39
2024/02/04 05:20:09;;;;;;;6.60;2.10;;;;;;;4.87;71.33;98180.67;106770;1264;71752;-40
2024/02/04 05:22:37;;;;;;;7.00;2.00;;;;;;;4.87;71.18;98181.50;106775;1264;68465;-40
2024/02/04 05:25:06;;;;;;;5.60;1.80;;;;;;;4.85;70.97;98189.05;106759;1269;72685;-39
2024/02/04 05:27:34;;;;;;;6.40;1.90;;;;;;;4.88;70.77;98191.04;106804;1265;60856;-39
2024/02/04 05:30:04;;;;;;;5.80;2.00;;;;;;;4.94;70.65;98188.16;106758;1265;59516;-39
2024/02/04 05:32:31;;;;;;;6.90;1.60;;;;;;;4.94;70.73;98188.64;106094;1268;1003531;-39
2024/02/04 05:34:59;;;;;;;5.50;2.00;;;;;;;4.89;71.05;98185.55;106774;1264;67086;-39
2024/02/04 05:37:27;;;;;;;7.20;2.10;;;;;;;4.85;71.15;98187.52;106724;1268;71463;-39
2024/02/04 05:39:54;;;;;;;5.80;1.90;;;;;;;4.78;71.58;98193.88;106707;1269;59388;-40
2024/02/04 05:42:22;;;;;;;3.90;1.70;;;;;;;4.74;72.04;98190.88;106720;1268;59745;-39
2024/02/04 05:44:50;;;;;;;8.40;2.10;;;;;;;4.76;72.28;98196.98;106772;1264;73089;-39
2024/02/04 05:47:17;;;;;;;7.80;2.30;;;;;;;4.71;72.54;98194.65;106736;1269;68341;-39
2024/02/04 05:49:45;;;;;;;8.70;2.20;;;;;;;4.68;72.97;98190.90;106760;1269;71487;-39
2024/02/04 05:52:14;;;;;;;6.10;2.20;;;;;;;4.64;73.21;98188.35;106044;1264;1002668;-39
2024/02/04 05:54:42;;;;;;;6.00;1.90;;;;;;;4.60;73.62;98187.40;106786;1264;59832;-39
2024/02/04 05:57:11;;;;;;;4.70;1.70;;;;;;;4.61;73.91;98186.98;106774;1264;73067;-40
2024/02/04 05:59:39;;;;;;;6.20;2.10;;;;;;;4.63;74.13;98189.63;106719;1269;68387;-40
2024/02/04 06:02:06;;;;;;;8.50;2.30;;;;;;;4.59;74.11;98186.16;106703;1267;72791;-39
2024/02/04 06:04:36;;;;;;;10.00;2.30;;;;;;;4.54;74.44;98184.59;106732;1269;59638;-39
2024/02/04 06:07:04;;;;;;;;;;;;;;;4.49;74.68;98183.10;106870;1269;59496;-40
2024/02/04 06:09:33;;;;;;;6.10;2.20;;;;;;;4.47;75.04;98181.66;106736;1269;71775;-39
2024/02/04 06:12:01;;;;;;;7.40;1.90;;;;;;;4.50;74.98;98182.42;106739;1264;67393;-39
2024/02/04 06:14:28;;;;;;;4.50;1.90;;;;;;;4.49;75.26;98179.41;106626;1267;71407;-40
2024/02/04 06:16:56;;;;;;;7.70;2.20;;;;;;;4.43;75.58;98176.66;106632;1264;59615;-40
2024/02/04 06:19:24;;;;;;;6.20;1.80;;;;;;;4.36;75.99;98178.34;106664;1264;59902;-39
2024/02/04 06:21:51;;;;;;;8.30;2.70;;;;;;;4.34;76.18;98178.43;106621;1269;73037;-39
2024/02/04 06:24:20;;;;;;;5.60;2.00;;;;;;;4.33;76.49;98177.80;106643;1269;67244;-39
2024/02/04 06:26:47;;;;;;;7.10;2.50;;;;;;;4.28;76.99;98179.83;107576;1254;71415;-40
2024/02/04 06:29:15;;;;;;;7.30;2.50;;;;;;;4.21;77.46;98187.54;107555;1254;59619;-39
2024/02/04 06:31:46;;;;;;;5.20;2.70;;;;;;;4.14;78.19;98191.89;107594;1254;59813;-40
2024/02/04 06:34:14;;;;;;;6.20;2.30;;;;;;;4.13;78.71;98190.63;107564;1254;72837;-40
2024/02/04 06:36:45;;;;;;;4.90;2.00;;;;;;;4.14;78.98;98187.52;107535;1257;68033;-39
2024/02/04 06:39:13;;;;;;;6.70;2.70;;;;;;;4.12;79.29;98190.30;107520;1257;71705;-39
2024/02/04 06:41:41;;;;;;;5.60;2.70;;;;;;;4.08;79.29;98186.68;107498;1254;59451;-40
2024/02/04 06:44:08;;;;;;;4.00;2.00;;;;;;;4.07;79.57;98189.24;107541;1253;59909;-40
2024/02/04 06:46:36;;;;;;;5.90;1.80;;;;;;;4.11;79.31;98189.60;107487;1254;73103;-40
2024/02/04 06:49:03;;;;;;;6.60;2.20;;;;;;;4.18;79.24;98189.98;107581;1253;66386;-40
2024/02/04 06:51:31;;;;;;;6.10;2.10;;;;;;;4.18;79.16;98190.13;107612;1254;72522;-40
2024/02/04 06:53:58;;;;;;;7.20;2.00;;;;;;;4.15;79.20;98197.27;107604;1254;60012;-40
2024/02/04 06:56:26;;;;;;;4.90;2.10;;;;;;;4.11;79.20;98193.42;107617;1257;59577;-39
2024/02/04 06:58:53;;;;;;;6.80;2.40;;;;;;;4.16;79.04;98195.38;107621;1254;73103;-40
2024/02/04 07:01:21;;;;;;;4.80;1.90;;;;;;;4.23;78.61;98201.45;107615;1257;68419;-41
2024/02/04 07:03:49;;;;;;;5.70;2.20;;;;;;;4.24;78.13;98198.20;107616;1254;71069;-40
2024/02/04 07:06:18;;;;;;;8.70;2.60;;;;;;;4.24;77.58;98201.04;107557;1254;59458;-40
2024/02/04 07:08:45;;;;;;;7.00;1.90;;;;;;;4.25;76.74;98205.36;107665;1254;59344;-40
2024/02/04 07:11:13;;;;;;;6.30;2.00;;;;;;;4.30;76.36;98202.02;107562;1255;73063;-41
2024/02/04 07:13:40;;;;;;;5.80;1.90;;;;;;;4.40;75.05;98203.48;107567;1254;67530;-40
2024/02/04 07:16:08;;;;;;;6.30;1.90;;;;;;;4.52;74.48;98207.78;107582;1254;71087;-39
2024/02/04 07:18:35;;;;;;;5.40;1.80;;;;;;;4.58;74.24;98209.46;107602;1254;59378;-39
2024/02/04 07:21:04;;;;;;;4.20;1.80;;;;;;;4.64;73.86;98213.51;107535;1257;59531;-39
2024/02/04 07:23:31;;;;;;;4.30;2.10;;;;;;;4.61;73.29;98201.32;107555;1253;72424;-39
2024/02/04 07:25:59;;;;;;;6.10;1.90;;;;;;;4.79;73.17;98210.33;107501;1257;68694;-40
2024/02/04 07:28:26;;;;;;;5.20;2.20;;;;;;;4.90;72.87;98212.11;107505;1254;71420;-40
2024/02/04 07:30:55;;;;;;;6.10;1.90;;;;;;;4.90;72.73;98209.66;107486;1254;59608;-39
2024/02/04 07:33:22;;;;;;;4.90;1.70;;;;;;;4.90;72.89;98204.20;107570;1254;59660;-39
2024/02/04 07:35:50;;;;;;;6.50;2.20;;;;;;;4.89;73.04;98205.80;107457;1254;71783;-40
2024/02/04 07:38:17;;;;;;;7.40;2.00;;;;;;;4.91;73.39;98205.84;107532;1254;67684;-40
2024/02/04 07:40:45;;;;;;;4.60;1.70;;;;;;;4.98;73.52;98210.36;107528;1257;72464;-39
2024/02/04 07:43:13;;;;;;;6.60;2.00;;;;;;;4.96;73.82;98212.48;107462;1254;59390;-40
2024/02/04 07:45:40;;;;;;;5.10;1.80;;;;;;;4.91;74.00;98210.35;107468;1254;59655;-40
2024/02/04 07:48:09;;;;;;;6.00;1.90;;;;;;;4.80;74.38;98203.59;107547;1254;73141;-40
2024/02/04 07:50:37;;;;;;;7.20;2.00;;;;;;;4.89;74.54;98202.94;107512;1254;67396;-39
2024/02/04 07:53:04;;;;;;;9.80;2.60;;;;;;;4.93;74.52;98208.64;107494;1254;71457;-40
2024/02/04 07:55:32;;;;;;;8.30;2.30;;;;;;;4.90;74.70;98215.41;107490;1254;59820;-39
2024/02/04 07:58:00;;;;;;;6.60;2.20;;;;;;;4.88;74.91;98210.06;107506;1254;59588;-39
2024/02/04 08:00:27;;;;;;;8.10;2.30;;;;;;;4.87;75.00;98206.11;107480;1254;72967;-40
2024/02/04 08:02:55;;;;;;;7.80;2.60;;;;;;;4.92;74.97;98202.95;107362;1254;68370;-39
2024/02/04 08:05:22;;;;;;;6.30;2.30;;;;;;;4.98;74.90;98198.79;107340;1254;71322;-39
2024/02/04 08:07:50;;;;;;;6.90;2.40;;;;;;;4.97;74.70;98199.54;107354;1255;60278;-39
2024/02/04 08:10:18;;;;;;;9.70;2.60;;;;;;;4.96;74.39;98198.96;107355;1254;59500;-40
2024/02/04 08:12:50;;;;;;;4.80;2.10;;;;;;;4.97;74.34;98197.30;107403;1254;73304;-40
2024/02/04 08:15:18;;;;;;;7.00;2.50;;;;;;;5.00;74.04;98198.21;107432;1254;67403;-39
2024/02/04 08:17:46;;;;;;;8.30;2.20;;;;;;;5.04;73.65;98193.92;107384;1257;72790;-40
2024/02/04 08:20:13;;;;;;;9.10;2.10;;;;;;;5.11;73.44;98201.92;107418;1254;59773;-40
2024/02/04 08:22:41;;;;;;;12.30;2.50;;;;;;;5.12;73.23;98199.39;107362;1255;60026;-40
2024/02/04 08:25:11;;;;;;;7.00;2.10;;;;;;;5.15;73.42;98190.86;107410;1260;71911;-39
2024/02/04 08:27:39;;;;;;;10.10;2.70;;;;;;;5.27;73.27;98188.73;107370;1254;67556;-39
2024/02/04 08:30:07;;;;;;;7.20;2.20;;;;;;;5.51;73.08;98182.78;107302;1254;72437;-39
2024/02/04 08:32:35;;;;;;;6.50;2.30;;;;;;;5.71;72.12;98177.40;107321;1256;59580;-40
2024/02/04 08:35:03;;;;;;;9.60;2.50;;;;;;;5.83;71.09;98181.45;107283;1254;59433;-40
2024/02/04 08:37:32;;;;;;;5.70;2.50;;;;;;;5.88;70.47;98184.57;107351;1254;71804;-40
2024/02/04 08:39:59;;;;;;;6.40;2.30;;;;;;;5.88;70.25;98187.42;107446;1260;67554;-39
2024/02/04 08:42:27;;;;;;;8.70;2.70;;;;;;;5.89;70.02;98194.59;107431;1254;72672;-40
2024/02/04 08:44:55;;;;;;;5.70;2.20;;;;;;;5.95;69.53;98191.63;107321;1254;59347;-40
2024/02/04 08:47:22;;;;;;;8.70;2.40;;;;;;;5.96;69.05;98199.55;107430;1254;59405;-40
2024/02/04 08:49:50;;;;;;;7.50;2.50;;;;;;;5.94;68.94;98197.06;107422;1254;73118;-40
2024/02/04 08:52:18;;;;;;;7.30;2.60;;;;;;;5.95;68.78;98198.02;107348;1254;68675;-40
2024/02/04 08:54:46;;;;;;;5.00;2.10;;;;;;;5.97;68.25;98193.18;107355;1254;71375;-40
2024/02/04 08:57:14;;;;;;;8.80;2.50;;;;;;;5.97;67.30;98194.51;107309;1259;59280;-40
2024/02/04 08:59:41;;;;;;;11.00;2.30;;;;;;;6.01;66.94;98193.67;107412;1254;60505;-40
2024/02/04 09:02:09;;;;;;;6.90;2.30;;;;;;;6.06;66.52;98190.05;107434;1254;72587;-40
2024/02/04 09:04:40;;;;;;;10.30;2.20;;;;;;;6.07;66.68;98192.84;107384;1254;66103;-40
2024/02/04 09:07:08;;;;;;;7.10;1.90;;;;;;;6.10;66.61;98191.42;107399;1254;72658;-39
2024/02/04 09:09:38;;;;;;;5.70;2.40;;;;;;;6.09;66.35;98193.80;107435;1254;60412;-40
2024/02/04 09:12:06;;;;;;;7.50;2.80;;;;;;;6.07;66.85;98197.23;107428;1254;60325;-40
2024/02/04 09:14:33;;;;;;;6.30;2.10;;;;;;;6.05;66.67;98199.05;107425;1254;72602;-40
2024/02/04 09:17:06;;;;;;;7.60;2.30;;;;;;;6.10;66.56;98200.66;107407;1254;67657;-40
2024/02/04 09:19:34;;;;;;;6.40;2.00;;;;;;;6.24;66.75;98203.14;107420;1254;72653;-40
2024/02/04 09:22:06;;;;;;;4.50;1.50;;;;;;;6.34;66.12;98196.98;106662;1254;1003551;-40
2024/02/04 09:24:34;;;;;;;7.60;2.40;;;;;;;6.35;65.70;98197.23;107434;1254;60277;-40
2024/02/04 09:27:02;;;;;;;4.80;1.80;;;;;;;6.30;65.49;98197.48;107377;1254;72570;-40
2024/02/04 09:29:30;;;;;;;5.40;2.10;;;;;;;6.24;65.62;98192.14;107328;1254;68680;-40
2024/02/04 09:31:57;;;;;;;7.00;1.90;;;;;;;6.21;65.45;98192.46;107304;1255;72471;-40
2024/02/04 09:34:25;;;;;;;7.30;2.40;;;;;;;6.20;65.91;98193.68;107290;1254;59331;-40
2024/02/04 09:36:53;;;;;;;5.70;2.00;;;;;;;6.31;65.93;98194.56;107123;1254;59328;-40
2024/02/04 09:39:21;;;;;;;5.30;1.90;;;;;;;6.46;65.42;98196.89;107313;1255;73898;-40
2024/02/04 09:41:48;;;;;;;5.90;2.00;;;;;;;6.55;64.59;98190.96;107429;1254;68907;-40
2024/02/04 09:44:16;;;;;;;9.10;1.90;;;;;;;6.59;64.32;98188.24;107404;1254;72699;-40
2024/02/04 09:46:45;;;;;;;5.10;1.60;;;;;;;6.61;63.58;98193.73;107402;1254;60466;-39
2024/02/04 09:49:13;;;;;;;4.50;1.90;;;;;;;6.55;62.52;98178.02;107427;1254;60386;-40
2024/02/04 09:51:41;;;;;;;6.20;1.90;;;;;;;6.51;63.06;98184.81;107226;1254;73844;-40
2024/02/04 09:54:10;;;;;;;7.70;2.00;;;;;;;6.50;63.55;98188.48;107445;1254;68368;-40
2024/02/04 09:56:38;;;;;;;4.90;1.90;;;;;;;6.52;62.96;98180.23;107438;1254;72713;-40
2024/02/04 09:59:06;;;;;;;4.70;1.80;;;;;;;6.56;62.92;98176.19;107267;1254;60553;-40
2024/02/04 10:01:34;;;;;;;8.20;2.20;;;;;;;6.59;62.76;98172.23;107286;1254;60335;-40
2024/02/04 10:04:01;;;;;;;5.70;1.70;;;;;;;6.62;62.42;98163.83;107292;1254;73817;-39
2024/02/04 10:06:29;;;;;;;6.20;2.00;;;;;;;6.68;62.19;98159.91;107417;1254;69189;-40
2024/02/04 10:08:57;;;;;;;7.00;1.90;;;;;;;6.73;62.06;98166.22;107394;1254;73110;-40
2024/02/04 10:11:25;;;;;;;6.60;2.10;;;;;;;6.72;61.24;98154.29;107380;1254;60364;-40
2024/02/04 10:13:53;;;;;;;8.20;2.10;;;;;;;6.67;61.38;98144.27;107442;1254;60387;-40
2024/02/04 10:16:21;;;;;;;6.80;2.20;;;;;;;6.61;61.17;98140.02;107386;1254;72567;-40
2024/02/04 10:18:49;;;;;;;7.40;2.10;;;;;;;6.54;60.89;98137.63;107241;1254;68701;-40
2024/02/04 10:21:19;;;;;;;5.00;1.90;;;;;;;6.51;61.22;98140.66;107443;1254;71360;-40
2024/02/04 10:23:47;;;;;;;7.70;1.90;;;;;;;6.46;61.13;98137.05;107474;1254;60032;-40
2024/02/04 10:26:16;;;;;;;5.10;1.70;;;;;;;6.39;61.34;98133.78;107475;1254;59234;-40
2024/02/04 10:28:47;;;;;;;7.00;1.90;;;;;;;6.33;61.21;98131.92;107368;1254;73857;-40
2024/02/04 10:31:15;;;;;;;6.00;1.80;;;;;;;6.26;60.67;98127.27;107309;1254;67410;-40
2024/02/04 10:33:43;;;;;;;8.30;2.20;;;;;;;6.20;60.97;98127.77;107307;1254;72789;-39
2024/02/04 10:36:11;;;;;;;11.20;2.10;;;;;;;6.23;61.67;98127.09;107363;1254;60518;-40
2024/02/04 10:38:39;;;;;;;8.80;2.50;;;;;;;6.32;61.35;98120.66;107366;1254;59585;-40
2024/02/04 10:41:06;;;;;;;7.50;2.20;;;;;;;6.39;61.04;98122.48;107359;1254;73849;-40
2024/02/04 10:43:34;;;;;;;8.70;2.60;;;;;;;6.48;60.83;98123.23;107321;1254;68678;-40
2024/02/04 10:46:11;;;;;;;8.10;2.40;;;;;;;6.57;60.68;98127.90;107459;1253;72686;-40
2024/02/04 10:48:41;;;;;;;6.20;2.00;;;;;;;6.62;60.35;98124.73;107480;1254;59526;-40
2024/02/04 10:51:14;;;;;;;5.80;2.20;;;;;;;6.62;59.65;98116.27;107532;1253;60321;-40
2024/02/04 10:53:43;;;;;;;9.70;2.00;;;;;;;6.58;59.70;98124.00;107559;1254;71791;-40
2024/02/04 10:56:38;;;;;;;7.70;2.30;;;;;;;6.58;59.87;98120.99;107468;1254;68405;-40
2024/02/04 10:59:06;;;;;;;8.00;2.10;;;;;;;6.65;60.21;98122.23;107452;1254;72973;-40
2024/02/04 11:01:33;;;;;;;6.30;2.10;;;;;;;6.73;59.60;98121.52;107481;1254;60453;-40
2024/02/04 11:04:01;;;;;;;9.00;2.20;;;;;;;6.79;58.88;98120.98;107501;1254;60546;-40
2024/02/04 11:06:28;;;;;;;7.70;2.20;;;;;;;6.83;58.80;98121.80;107493;1259;73862;-40
2024/02/04 11:08:57;;;;;;;6.60;2.30;;;;;;;6.84;57.41;98110.65;107474;1254;68374;-40
2024/02/04 11:11:26;;;;;;;8.40;2.00;;;;;;;6.86;57.62;98114.08;107472;1254;72773;-40
2024/02/04 11:14:04;;;;;;;6.00;2.10;;;;;;;6.87;57.54;98115.77;107560;1254;60418;-40
2024/02/04 11:17:01;;;;;;;7.30;1.90;;;;;;;6.92;57.07;98117.92;107594;1254;60325;-40
2024/02/04 11:19:50;;;;;;;6.80;2.10;;;;;;;7.01;57.06;98130.97;107493;1254;75083;-40
2024/02/04 11:22:22;;;;;;;;;;;;;;;7.15;55.73;98133.15;107533;1254;68723;-41
2024/02/04 11:25:22;;;;;;;8.30;2.60;;;;;;;7.34;56.63;98127.69;107488;1254;72722;-40
2024/02/04 11:27:50;;;;;;;9.30;2.30;;;;;;;7.67;55.88;98126.42;107264;1254;60426;-40
2024/02/04 11:30:17;;;;;;;7.50;2.10;;;;;;;7.94;54.61;98128.16;107375;1254;60328;-40
2024/02/04 11:32:46;;;;;;;12.30;2.30;;;;;;;8.22;54.20;98123.80;107530;1254;74003;-40
2024/02/04 11:35:14;;;;;;;6.70;2.10;;;;;;;8.52;52.82;98120.63;107513;1254;68334;-40
2024/02/04 11:37:42;;;;;;;6.60;2.10;;;;;;;8.75;51.76;98116.09;107513;1254;72747;-40
2024/02/04 11:40:15;;;;;;;7.50;2.40;;;;;;;8.92;51.48;98119.05;107517;1254;59674;-40
2024/02/04 11:42:43;;;;;;;6.70;2.10;;;;;;;9.11;50.78;98133.20;107531;1254;60305;-41
2024/02/04 11:45:12;;;;;;;8.30;2.30;;;;;;;9.29;49.70;98135.05;107558;1253;72670;-40